Terminal Aerodrome Forecast
Issued by NWS Greer, SC

Home | Current Version | Previous Version | Text Only | Print | Product List | Glossary On
Versions: 1 2 3 4 5 6 7 8 9 10 11 12 13 14 15 16 17 18 19 20 21 22 23 24 25 26 27 28 29 30 31 32 33 34 35
848
FTUS42 KGSP 310531
TAFAVL
TAF
KAVL 310531Z 3106/0106 33003KT P6SM SCT100
     FM310800 33003KT 4SM BR SCT050
     FM311200 34003KT P6SM SCT080
     FM311700 34004KT P6SM BKN050 PROB30 3118/3124 4SM -TSRA
      OVC025CB
     FM010300 00000KT P6SM BKN080 PROB30 0103/0104 4SM -SHRA OVC040=

USA.gov is the U.S. government's official web portal to all federal, state and local government web resources and services.